Aviation Digital Data Service (ADDS)

Output produced by METARs form (1935 UTC 23 January 2019)
found at http://www.aviationweather.gov/metar/data/
 
METAR text: ESGG 231920Z 11005KT CAVOK M06/M07 Q1009 R21/29//95
Conditions at: ESGG (GOTEBORG/LANDVET, SE) observed 1920 UTC 23 January 2019
Temperature: -6.0°C (21°F)
Dewpoint: -7.0°C (19°F) [RH = 93%]
Pressure (altimeter): 29.79 inches Hg (1009.0 mb)
Winds: from the ESE (110 degrees) at 6 MPH (5 knots; 2.6 m/s)
Visibility: 6 or more miles (10+ km)
Ceiling: ceiling and visibility are OK
Clouds: unknown
Weather: no significant weather observed at this time

METAR text: ESGG 231850Z 13004KT 8000 BR NSC M05/M06 Q1009 R21/29//95
Conditions at: ESGG (GOTEBORG/LANDVET, SE) observed 1850 UTC 23 January 2019
Temperature: -5.0°C (23°F)
Dewpoint: -6.0°C (21°F) [RH = 93%]
Pressure (altimeter): 29.79 inches Hg (1009.0 mb)
Winds: from the SE (130 degrees) at 5 MPH (4 knots; 2.1 m/s)
Visibility: 5 miles ( 8 km)
Ceiling: at least 12,000 feet AGL
Clouds: sky clear below 12,000 feet AGL
Weather: BR  (mist)

METAR text: ESGG 231820Z 13006KT 8000 NSC M05/M07 Q1009 R21/29//95
Conditions at: ESGG (GOTEBORG/LANDVET, SE) observed 1820 UTC 23 January 2019
Temperature: -5.0°C (23°F)
Dewpoint: -7.0°C (19°F) [RH = 86%]
Pressure (altimeter): 29.79 inches Hg (1009.0 mb)
Winds: from the SE (130 degrees) at 7 MPH (6 knots; 3.1 m/s)
Visibility: 5 miles ( 8 km)
Ceiling: at least 12,000 feet AGL
Clouds: sky clear below 12,000 feet AGL
Weather: no significant weather observed at this time

METAR text: ESGG 231750Z 12005KT CAVOK M05/M07 Q1008 R21/29//95
Conditions at: ESGG (GOTEBORG/LANDVET, SE) observed 1750 UTC 23 January 2019
Temperature: -5.0°C (23°F)
Dewpoint: -7.0°C (19°F) [RH = 86%]
Pressure (altimeter): 29.76 inches Hg (1008.0 mb)
Winds: from the ESE (120 degrees) at 6 MPH (5 knots; 2.6 m/s)
Visibility: 6 or more miles (10+ km)
Ceiling: ceiling and visibility are OK
Clouds: unknown
Weather: no significant weather observed at this time

METAR text: ESGG 231720Z 12005KT CAVOK M05/M06 Q1008 R21/29//95
Conditions at: ESGG (GOTEBORG/LANDVET, SE) observed 1720 UTC 23 January 2019
Temperature: -5.0°C (23°F)
Dewpoint: -6.0°C (21°F) [RH = 93%]
Pressure (altimeter): 29.76 inches Hg (1008.0 mb)
Winds: from the ESE (120 degrees) at 6 MPH (5 knots; 2.6 m/s)
Visibility: 6 or more miles (10+ km)
Ceiling: ceiling and visibility are OK
Clouds: unknown
Weather: no significant weather observed at this time

METAR text: ESGG 231650Z 13006KT CAVOK M05/M06 Q1008 R21/29//95
Conditions at: ESGG (GOTEBORG/LANDVET, SE) observed 1650 UTC 23 January 2019
Temperature: -5.0°C (23°F)
Dewpoint: -6.0°C (21°F) [RH = 93%]
Pressure (altimeter): 29.76 inches Hg (1008.0 mb)
Winds: from the SE (130 degrees) at 7 MPH (6 knots; 3.1 m/s)
Visibility: 6 or more miles (10+ km)
Ceiling: ceiling and visibility are OK
Clouds: unknown
Weather: no significant weather observed at this time

METAR text: ESGG 231620Z 13006KT CAVOK M05/M07 Q1008 R21/29//95
Conditions at: ESGG (GOTEBORG/LANDVET, SE) observed 1620 UTC 23 January 2019
Temperature: -5.0°C (23°F)
Dewpoint: -7.0°C (19°F) [RH = 86%]
Pressure (altimeter): 29.76 inches Hg (1008.0 mb)
Winds: from the SE (130 degrees) at 7 MPH (6 knots; 3.1 m/s)
Visibility: 6 or more miles (10+ km)
Ceiling: ceiling and visibility are OK
Clouds: unknown
Weather: no significant weather observed at this time

METAR text: ESGG 231550Z 13005KT CAVOK M05/M06 Q1008 R21/29//95
Conditions at: ESGG (GOTEBORG/LANDVET, SE) observed 1550 UTC 23 January 2019
Temperature: -5.0°C (23°F)
Dewpoint: -6.0°C (21°F) [RH = 93%]
Pressure (altimeter): 29.76 inches Hg (1008.0 mb)
Winds: from the SE (130 degrees) at 6 MPH (5 knots; 2.6 m/s)
Visibility: 6 or more miles (10+ km)
Ceiling: ceiling and visibility are OK
Clouds: unknown
Weather: no significant weather observed at this time

METAR text: ESGG 231520Z 12005KT CAVOK M05/M07 Q1007 R21/29//95
Conditions at: ESGG (GOTEBORG/LANDVET, SE) observed 1520 UTC 23 January 2019
Temperature: -5.0°C (23°F)
Dewpoint: -7.0°C (19°F) [RH = 86%]
Pressure (altimeter): 29.73 inches Hg (1007.0 mb)
Winds: from the ESE (120 degrees) at 6 MPH (5 knots; 2.6 m/s)
Visibility: 6 or more miles (10+ km)
Ceiling: ceiling and visibility are OK
Clouds: unknown
Weather: no significant weather observed at this time

METAR text: ESGG 231450Z 13005KT CAVOK M04/M06 Q1007 R21/29//95
Conditions at: ESGG (GOTEBORG/LANDVET, SE) observed 1450 UTC 23 January 2019
Temperature: -4.0°C (25°F)
Dewpoint: -6.0°C (21°F) [RH = 86%]
Pressure (altimeter): 29.73 inches Hg (1007.0 mb)
Winds: from the SE (130 degrees) at 6 MPH (5 knots; 2.6 m/s)
Visibility: 6 or more miles (10+ km)
Ceiling: ceiling and visibility are OK
Clouds: unknown
Weather: no significant weather observed at this time

METAR text: ESGG 231420Z 14007KT CAVOK M03/M06 Q1007 R21/29//95
Conditions at: ESGG (GOTEBORG/LANDVET, SE) observed 1420 UTC 23 January 2019
Temperature: -3.0°C (27°F)
Dewpoint: -6.0°C (21°F) [RH = 80%]
Pressure (altimeter): 29.73 inches Hg (1007.0 mb)
Winds: from the SE (140 degrees) at 8 MPH (7 knots; 3.6 m/s)
Visibility: 6 or more miles (10+ km)
Ceiling: ceiling and visibility are OK
Clouds: unknown
Weather: no significant weather observed at this time

METAR text: ESGG 231350Z 14006KT 9999 FEW011 M03/M06 Q1007 R21/29//95
Conditions at: ESGG (GOTEBORG/LANDVET, SE) observed 1350 UTC 23 January 2019
Temperature: -3.0°C (27°F)
Dewpoint: -6.0°C (21°F) [RH = 80%]
Pressure (altimeter): 29.73 inches Hg (1007.0 mb)
Winds: from the SE (140 degrees) at 7 MPH (6 knots; 3.1 m/s)
Visibility: 6 or more miles (10+ km)
Ceiling: at least 12,000 feet AGL
Clouds: few clouds at 1100 feet AGL
Weather: no significant weather observed at this time

METAR text: ESGG 231320Z 12006KT 9999 SCT010 M03/M05 Q1007 R21/29//95
Conditions at: ESGG (GOTEBORG/LANDVET, SE) observed 1320 UTC 23 January 2019
Temperature: -3.0°C (27°F)
Dewpoint: -5.0°C (23°F) [RH = 86%]
Pressure (altimeter): 29.73 inches Hg (1007.0 mb)
Winds: from the ESE (120 degrees) at 7 MPH (6 knots; 3.1 m/s)
Visibility: 6 or more miles (10+ km)
Ceiling: at least 12,000 feet AGL
Clouds: scattered clouds at 1000 feet AGL
Weather: no significant weather observed at this time

METAR text: ESGG 231250Z 15006KT 9999 FEW009 SCT011 M03/M06 Q1007 R21/29//95
Conditions at: ESGG (GOTEBORG/LANDVET, SE) observed 1250 UTC 23 January 2019
Temperature: -3.0°C (27°F)
Dewpoint: -6.0°C (21°F) [RH = 80%]
Pressure (altimeter): 29.73 inches Hg (1007.0 mb)
Winds: from the SSE (150 degrees) at 7 MPH (6 knots; 3.1 m/s)
Visibility: 6 or more miles (10+ km)
Ceiling: at least 12,000 feet AGL
Clouds: few clouds at 900 feet AGL
scattered clouds at 1100 feet AGL
Weather: no significant weather observed at this time

METAR text: ESGG 231220Z 15007KT 9999 FEW008 SCT010 M03/M05 Q1007 R21/29//95
Conditions at: ESGG (GOTEBORG/LANDVET, SE) observed 1220 UTC 23 January 2019
Temperature: -3.0°C (27°F)
Dewpoint: -5.0°C (23°F) [RH = 86%]
Pressure (altimeter): 29.73 inches Hg (1007.0 mb)
Winds: from the SSE (150 degrees) at 8 MPH (7 knots; 3.6 m/s)
Visibility: 6 or more miles (10+ km)
Ceiling: at least 12,000 feet AGL
Clouds: few clouds at 800 feet AGL
scattered clouds at 1000 feet AGL
Weather: no significant weather observed at this time

METAR text: ESGG 231150Z 16008KT 9999 SCT008 BKN010 M03/M05 Q1007 R21/29//95
Conditions at: ESGG (GOTEBORG/LANDVET, SE) observed 1150 UTC 23 January 2019
Temperature: -3.0°C (27°F)
Dewpoint: -5.0°C (23°F) [RH = 86%]
Pressure (altimeter): 29.73 inches Hg (1007.0 mb)
Winds: from the SSE (160 degrees) at 9 MPH (8 knots; 4.1 m/s)
Visibility: 6 or more miles (10+ km)
Ceiling: 1000 feet AGL
Clouds: scattered clouds at 800 feet AGL
broken clouds at 1000 feet AGL
Weather: no significant weather observed at this time

METAR text: ESGG 231120Z 15008KT 120V180 9999 SCT009 M03/M05 Q1007 R21/29//95
Conditions at: ESGG (GOTEBORG/LANDVET, SE) observed 1120 UTC 23 January 2019
Temperature: -3.0°C (27°F)
Dewpoint: -5.0°C (23°F) [RH = 86%]
Pressure (altimeter): 29.73 inches Hg (1007.0 mb)
Winds: from the SSE (150 degrees) at 9 MPH (8 knots; 4.1 m/s)
Visibility: 6 or more miles (10+ km)
Ceiling: at least 12,000 feet AGL
Clouds: scattered clouds at 900 feet AGL
Weather: no significant weather observed at this time

METAR text: ESGG 231050Z 14008KT 9999 SCT008 M03/M05 Q1007 R21/29//95
Conditions at: ESGG (GOTEBORG/LANDVET, SE) observed 1050 UTC 23 January 2019
Temperature: -3.0°C (27°F)
Dewpoint: -5.0°C (23°F) [RH = 86%]
Pressure (altimeter): 29.73 inches Hg (1007.0 mb)
Winds: from the SE (140 degrees) at 9 MPH (8 knots; 4.1 m/s)
Visibility: 6 or more miles (10+ km)
Ceiling: at least 12,000 feet AGL
Clouds: scattered clouds at 800 feet AGL
Weather: no significant weather observed at this time

METAR text: ESGG 231020Z 14009KT 100V170 9000 BR BKN008 M03/M05 Q1006 R21/29//95
Conditions at: ESGG (GOTEBORG/LANDVET, SE) observed 1020 UTC 23 January 2019
Temperature: -3.0°C (27°F)
Dewpoint: -5.0°C (23°F) [RH = 86%]
Pressure (altimeter): 29.70 inches Hg (1006.0 mb)
Winds: from the SE (140 degrees) at 10 MPH (9 knots; 4.6 m/s)
Visibility: 6 miles ( 9 km)
Ceiling: 800 feet AGL
Clouds: broken clouds at 800 feet AGL
Weather: BR  (mist)

METAR text: ESGG 230950Z 13007KT 9000 BR SCT008 M03/M05 Q1006 R21/29//95
Conditions at: ESGG (GOTEBORG/LANDVET, SE) observed 0950 UTC 23 January 2019
Temperature: -3.0°C (27°F)
Dewpoint: -5.0°C (23°F) [RH = 86%]
Pressure (altimeter): 29.70 inches Hg (1006.0 mb)
Winds: from the SE (130 degrees) at 8 MPH (7 knots; 3.6 m/s)
Visibility: 6 miles ( 9 km)
Ceiling: at least 12,000 feet AGL
Clouds: scattered clouds at 800 feet AGL
Weather: BR  (mist)

METAR text: ESGG 230920Z 14006KT 9000 BR FEW008 M03/M05 Q1006 R21/29//95
Conditions at: ESGG (GOTEBORG/LANDVET, SE) observed 0920 UTC 23 January 2019
Temperature: -3.0°C (27°F)
Dewpoint: -5.0°C (23°F) [RH = 86%]
Pressure (altimeter): 29.70 inches Hg (1006.0 mb)
Winds: from the SE (140 degrees) at 7 MPH (6 knots; 3.1 m/s)
Visibility: 6 miles ( 9 km)
Ceiling: at least 12,000 feet AGL
Clouds: few clouds at 800 feet AGL
Weather: BR  (mist)

METAR text: ESGG 230850Z 14006KT CAVOK M03/M05 Q1006 R21/29//95
Conditions at: ESGG (GOTEBORG/LANDVET, SE) observed 0850 UTC 23 January 2019
Temperature: -3.0°C (27°F)
Dewpoint: -5.0°C (23°F) [RH = 86%]
Pressure (altimeter): 29.70 inches Hg (1006.0 mb)
Winds: from the SE (140 degrees) at 7 MPH (6 knots; 3.1 m/s)
Visibility: 6 or more miles (10+ km)
Ceiling: ceiling and visibility are OK
Clouds: unknown
Weather: no significant weather observed at this time

METAR text: ESGG 230820Z 13006KT 9000 NSC M04/M05 Q1006 R21/29//95
Conditions at: ESGG (GOTEBORG/LANDVET, SE) observed 0820 UTC 23 January 2019
Temperature: -4.0°C (25°F)
Dewpoint: -5.0°C (23°F) [RH = 93%]
Pressure (altimeter): 29.70 inches Hg (1006.0 mb)
Winds: from the SE (130 degrees) at 7 MPH (6 knots; 3.1 m/s)
Visibility: 6 miles ( 9 km)
Ceiling: at least 12,000 feet AGL
Clouds: sky clear below 12,000 feet AGL
Weather: no significant weather observed at this time

METAR text: ESGG 230750Z 13007KT 8000 FEW006 M04/M05 Q1006 R21/29//95
Conditions at: ESGG (GOTEBORG/LANDVET, SE) observed 0750 UTC 23 January 2019
Temperature: -4.0°C (25°F)
Dewpoint: -5.0°C (23°F) [RH = 93%]
Pressure (altimeter): 29.70 inches Hg (1006.0 mb)
Winds: from the SE (130 degrees) at 8 MPH (7 knots; 3.6 m/s)
Visibility: 5 miles ( 8 km)
Ceiling: at least 12,000 feet AGL
Clouds: few clouds at 600 feet AGL
Weather: no significant weather observed at this time

METAR text: ESGG 230720Z 13008KT 9000 FEW006 M04/M05 Q1006 R21/29//95
Conditions at: ESGG (GOTEBORG/LANDVET, SE) observed 0720 UTC 23 January 2019
Temperature: -4.0°C (25°F)
Dewpoint: -5.0°C (23°F) [RH = 93%]
Pressure (altimeter): 29.70 inches Hg (1006.0 mb)
Winds: from the SE (130 degrees) at 9 MPH (8 knots; 4.1 m/s)
Visibility: 6 miles ( 9 km)
Ceiling: at least 12,000 feet AGL
Clouds: few clouds at 600 feet AGL
Weather: no significant weather observed at this time

METAR text: ESGG 230650Z 13009KT 9000 BR SCT007 M04/M05 Q1005 R21/29//95
Conditions at: ESGG (GOTEBORG/LANDVET, SE) observed 0650 UTC 23 January 2019
Temperature: -4.0°C (25°F)
Dewpoint: -5.0°C (23°F) [RH = 93%]
Pressure (altimeter): 29.68 inches Hg (1005.0 mb)
Winds: from the SE (130 degrees) at 10 MPH (9 knots; 4.6 m/s)
Visibility: 6 miles ( 9 km)
Ceiling: at least 12,000 feet AGL
Clouds: scattered clouds at 700 feet AGL
Weather: BR  (mist)

METAR text: ESGG 230620Z 14009KT 9999 SCT007 M04/M05 Q1005 R21/29//95
Conditions at: ESGG (GOTEBORG/LANDVET, SE) observed 0620 UTC 23 January 2019
Temperature: -4.0°C (25°F)
Dewpoint: -5.0°C (23°F) [RH = 93%]
Pressure (altimeter): 29.68 inches Hg (1005.0 mb)
Winds: from the SE (140 degrees) at 10 MPH (9 knots; 4.6 m/s)
Visibility: 6 or more miles (10+ km)
Ceiling: at least 12,000 feet AGL
Clouds: scattered clouds at 700 feet AGL
Weather: no significant weather observed at this time

METAR text: ESGG 230550Z 14009KT 9999 BKN007 M04/M05 Q1005 R21/29//95
Conditions at: ESGG (GOTEBORG/LANDVET, SE) observed 0550 UTC 23 January 2019
Temperature: -4.0°C (25°F)
Dewpoint: -5.0°C (23°F) [RH = 93%]
Pressure (altimeter): 29.68 inches Hg (1005.0 mb)
Winds: from the SE (140 degrees) at 10 MPH (9 knots; 4.6 m/s)
Visibility: 6 or more miles (10+ km)
Ceiling: 700 feet AGL
Clouds: broken clouds at 700 feet AGL
Weather: no significant weather observed at this time

METAR text: ESGG 230520Z 14009KT 9999 BKN007 M03/M05 Q1005 R21/29//95
Conditions at: ESGG (GOTEBORG/LANDVET, SE) observed 0520 UTC 23 January 2019
Temperature: -3.0°C (27°F)
Dewpoint: -5.0°C (23°F) [RH = 86%]
Pressure (altimeter): 29.68 inches Hg (1005.0 mb)
Winds: from the SE (140 degrees) at 10 MPH (9 knots; 4.6 m/s)
Visibility: 6 or more miles (10+ km)
Ceiling: 700 feet AGL
Clouds: broken clouds at 700 feet AGL
Weather: no significant weather observed at this time

METAR text: ESGG 230450Z 13007KT CAVOK M04/M05 Q1005 R21/29//95
Conditions at: ESGG (GOTEBORG/LANDVET, SE) observed 0450 UTC 23 January 2019
Temperature: -4.0°C (25°F)
Dewpoint: -5.0°C (23°F) [RH = 93%]
Pressure (altimeter): 29.68 inches Hg (1005.0 mb)
Winds: from the SE (130 degrees) at 8 MPH (7 knots; 3.6 m/s)
Visibility: 6 or more miles (10+ km)
Ceiling: ceiling and visibility are OK
Clouds: unknown
Weather: no significant weather observed at this time

METAR text: ESGG 230420Z 12007KT CAVOK M03/M05 Q1005 R21/29//95
Conditions at: ESGG (GOTEBORG/LANDVET, SE) observed 0420 UTC 23 January 2019
Temperature: -3.0°C (27°F)
Dewpoint: -5.0°C (23°F) [RH = 86%]
Pressure (altimeter): 29.68 inches Hg (1005.0 mb)
Winds: from the ESE (120 degrees) at 8 MPH (7 knots; 3.6 m/s)
Visibility: 6 or more miles (10+ km)
Ceiling: ceiling and visibility are OK
Clouds: unknown
Weather: no significant weather observed at this time

METAR text: ESGG 230350Z 12007KT 9999 FEW009 M03/M05 Q1005 R21/19//95
Conditions at: ESGG (GOTEBORG/LANDVET, SE) observed 0350 UTC 23 January 2019
Temperature: -3.0°C (27°F)
Dewpoint: -5.0°C (23°F) [RH = 86%]
Pressure (altimeter): 29.68 inches Hg (1005.0 mb)
Winds: from the ESE (120 degrees) at 8 MPH (7 knots; 3.6 m/s)
Visibility: 6 or more miles (10+ km)
Ceiling: at least 12,000 feet AGL
Clouds: few clouds at 900 feet AGL
Weather: no significant weather observed at this time

METAR text: ESGG 230320Z 13007KT 9999 SCT011 M03/M04 Q1005 R21/19//95
Conditions at: ESGG (GOTEBORG/LANDVET, SE) observed 0320 UTC 23 January 2019
Temperature: -3.0°C (27°F)
Dewpoint: -4.0°C (25°F) [RH = 93%]
Pressure (altimeter): 29.68 inches Hg (1005.0 mb)
Winds: from the SE (130 degrees) at 8 MPH (7 knots; 3.6 m/s)
Visibility: 6 or more miles (10+ km)
Ceiling: at least 12,000 feet AGL
Clouds: scattered clouds at 1100 feet AGL
Weather: no significant weather observed at this time

METAR text: ESGG 230250Z 13007KT 100V160 9999 BKN012 M02/M04 Q1005 R21/19//95
Conditions at: ESGG (GOTEBORG/LANDVET, SE) observed 0250 UTC 23 January 2019
Temperature: -2.0°C (28°F)
Dewpoint: -4.0°C (25°F) [RH = 86%]
Pressure (altimeter): 29.68 inches Hg (1005.0 mb)
Winds: from the SE (130 degrees) at 8 MPH (7 knots; 3.6 m/s)
Visibility: 6 or more miles (10+ km)
Ceiling: 1200 feet AGL
Clouds: broken clouds at 1200 feet AGL
Weather: no significant weather observed at this time

METAR text: ESGG 230220Z 13006KT 9999 SCT015 BKN019 OVC029 M02/M04 Q1005 R21/19//95
Conditions at: ESGG (GOTEBORG/LANDVET, SE) observed 0220 UTC 23 January 2019
Temperature: -2.0°C (28°F)
Dewpoint: -4.0°C (25°F) [RH = 86%]
Pressure (altimeter): 29.68 inches Hg (1005.0 mb)
Winds: from the SE (130 degrees) at 7 MPH (6 knots; 3.1 m/s)
Visibility: 6 or more miles (10+ km)
Ceiling: 1900 feet AGL
Clouds: scattered clouds at 1500 feet AGL
broken clouds at 1900 feet AGL
overcast cloud deck at 2900 feet AGL
Weather: no significant weather observed at this time

METAR text: ESGG 230150Z 13005KT 090V150 9999 BKN021 M02/M03 Q1005 R21/19//95
Conditions at: ESGG (GOTEBORG/LANDVET, SE) observed 0150 UTC 23 January 2019
Temperature: -2.0°C (28°F)
Dewpoint: -3.0°C (27°F) [RH = 93%]
Pressure (altimeter): 29.68 inches Hg (1005.0 mb)
Winds: from the SE (130 degrees) at 6 MPH (5 knots; 2.6 m/s)
Visibility: 6 or more miles (10+ km)
Ceiling: 2100 feet AGL
Clouds: broken clouds at 2100 feet AGL
Weather: no significant weather observed at this time

METAR text: ESGG 230120Z 13006KT 9999 BKN023 M02/M03 Q1005 R21/19//95
Conditions at: ESGG (GOTEBORG/LANDVET, SE) observed 0120 UTC 23 January 2019
Temperature: -2.0°C (28°F)
Dewpoint: -3.0°C (27°F) [RH = 93%]
Pressure (altimeter): 29.68 inches Hg (1005.0 mb)
Winds: from the SE (130 degrees) at 7 MPH (6 knots; 3.1 m/s)
Visibility: 6 or more miles (10+ km)
Ceiling: 2300 feet AGL
Clouds: broken clouds at 2300 feet AGL
Weather: no significant weather observed at this time

METAR text: ESGG 230050Z 12006KT 9999 BKN023 M02/M03 Q1005 R21/19//95
Conditions at: ESGG (GOTEBORG/LANDVET, SE) observed 0050 UTC 23 January 2019
Temperature: -2.0°C (28°F)
Dewpoint: -3.0°C (27°F) [RH = 93%]
Pressure (altimeter): 29.68 inches Hg (1005.0 mb)
Winds: from the ESE (120 degrees) at 7 MPH (6 knots; 3.1 m/s)
Visibility: 6 or more miles (10+ km)
Ceiling: 2300 feet AGL
Clouds: broken clouds at 2300 feet AGL
Weather: no significant weather observed at this time

METAR text: ESGG 230020Z 14005KT 9999 BKN027 M02/M03 Q1005 R21/19//95
Conditions at: ESGG (GOTEBORG/LANDVET, SE) observed 0020 UTC 23 January 2019
Temperature: -2.0°C (28°F)
Dewpoint: -3.0°C (27°F) [RH = 93%]
Pressure (altimeter): 29.68 inches Hg (1005.0 mb)
Winds: from the SE (140 degrees) at 6 MPH (5 knots; 2.6 m/s)
Visibility: 6 or more miles (10+ km)
Ceiling: 2700 feet AGL
Clouds: broken clouds at 2700 feet AGL
Weather: no significant weather observed at this time

METAR text: ESGG 222350Z 12005KT 9999 BKN028 M02/M03 Q1005 R21/19//95
Conditions at: ESGG (GOTEBORG/LANDVET, SE) observed 2350 UTC 22 January 2019
Temperature: -2.0°C (28°F)
Dewpoint: -3.0°C (27°F) [RH = 93%]
Pressure (altimeter): 29.68 inches Hg (1005.0 mb)
Winds: from the ESE (120 degrees) at 6 MPH (5 knots; 2.6 m/s)
Visibility: 6 or more miles (10+ km)
Ceiling: 2800 feet AGL
Clouds: broken clouds at 2800 feet AGL
Weather: no significant weather observed at this time

METAR text: ESGG 222320Z 12005KT 9999 BKN028 M02/M03 Q1005 R21/19//95
Conditions at: ESGG (GOTEBORG/LANDVET, SE) observed 2320 UTC 22 January 2019
Temperature: -2.0°C (28°F)
Dewpoint: -3.0°C (27°F) [RH = 93%]
Pressure (altimeter): 29.68 inches Hg (1005.0 mb)
Winds: from the ESE (120 degrees) at 6 MPH (5 knots; 2.6 m/s)
Visibility: 6 or more miles (10+ km)
Ceiling: 2800 feet AGL
Clouds: broken clouds at 2800 feet AGL
Weather: no significant weather observed at this time

METAR text: ESGG 222250Z 12005KT 9999 OVC028 M02/M03 Q1005 R21/19//95
Conditions at: ESGG (GOTEBORG/LANDVET, SE) observed 2250 UTC 22 January 2019
Temperature: -2.0°C (28°F)
Dewpoint: -3.0°C (27°F) [RH = 93%]
Pressure (altimeter): 29.68 inches Hg (1005.0 mb)
Winds: from the ESE (120 degrees) at 6 MPH (5 knots; 2.6 m/s)
Visibility: 6 or more miles (10+ km)
Ceiling: 2800 feet AGL
Clouds: overcast cloud deck at 2800 feet AGL
Weather: no significant weather observed at this time

METAR text: ESGG 222220Z 11005KT 9999 BKN028 M02/M03 Q1006 R21/19//95
Conditions at: ESGG (GOTEBORG/LANDVET, SE) observed 2220 UTC 22 January 2019
Temperature: -2.0°C (28°F)
Dewpoint: -3.0°C (27°F) [RH = 93%]
Pressure (altimeter): 29.70 inches Hg (1006.0 mb)
Winds: from the ESE (110 degrees) at 6 MPH (5 knots; 2.6 m/s)
Visibility: 6 or more miles (10+ km)
Ceiling: 2800 feet AGL
Clouds: broken clouds at 2800 feet AGL
Weather: no significant weather observed at this time

METAR text: ESGG 222150Z 12004KT 9999 BKN027 M02/M03 Q1006 R21/19//95
Conditions at: ESGG (GOTEBORG/LANDVET, SE) observed 2150 UTC 22 January 2019
Temperature: -2.0°C (28°F)
Dewpoint: -3.0°C (27°F) [RH = 93%]
Pressure (altimeter): 29.70 inches Hg (1006.0 mb)
Winds: from the ESE (120 degrees) at 5 MPH (4 knots; 2.1 m/s)
Visibility: 6 or more miles (10+ km)
Ceiling: 2700 feet AGL
Clouds: broken clouds at 2700 feet AGL
Weather: no significant weather observed at this time

METAR text: ESGG 222120Z 12005KT 9999 BKN028 M02/M03 Q1006 R21/19//95
Conditions at: ESGG (GOTEBORG/LANDVET, SE) observed 2120 UTC 22 January 2019
Temperature: -2.0°C (28°F)
Dewpoint: -3.0°C (27°F) [RH = 93%]
Pressure (altimeter): 29.70 inches Hg (1006.0 mb)
Winds: from the ESE (120 degrees) at 6 MPH (5 knots; 2.6 m/s)
Visibility: 6 or more miles (10+ km)
Ceiling: 2800 feet AGL
Clouds: broken clouds at 2800 feet AGL
Weather: no significant weather observed at this time

METAR text: ESGG 222050Z 13004KT 9999 BKN028 M02/M03 Q1006 R21/19//95
Conditions at: ESGG (GOTEBORG/LANDVET, SE) observed 2050 UTC 22 January 2019
Temperature: -2.0°C (28°F)
Dewpoint: -3.0°C (27°F) [RH = 93%]
Pressure (altimeter): 29.70 inches Hg (1006.0 mb)
Winds: from the SE (130 degrees) at 5 MPH (4 knots; 2.1 m/s)
Visibility: 6 or more miles (10+ km)
Ceiling: 2800 feet AGL
Clouds: broken clouds at 2800 feet AGL
Weather: no significant weather observed at this time

METAR text: ESGG 222020Z 13005KT 9999 BKN029 M02/M03 Q1006 R21/19//95
Conditions at: ESGG (GOTEBORG/LANDVET, SE) observed 2020 UTC 22 January 2019
Temperature: -2.0°C (28°F)
Dewpoint: -3.0°C (27°F) [RH = 93%]
Pressure (altimeter): 29.70 inches Hg (1006.0 mb)
Winds: from the SE (130 degrees) at 6 MPH (5 knots; 2.6 m/s)
Visibility: 6 or more miles (10+ km)
Ceiling: 2900 feet AGL
Clouds: broken clouds at 2900 feet AGL
Weather: no significant weather observed at this time

METAR text: ESGG 221950Z 14006KT 9999 BKN030 M02/M03 Q1006 R21/19//95
Conditions at: ESGG (GOTEBORG/LANDVET, SE) observed 1950 UTC 22 January 2019
Temperature: -2.0°C (28°F)
Dewpoint: -3.0°C (27°F) [RH = 93%]
Pressure (altimeter): 29.70 inches Hg (1006.0 mb)
Winds: from the SE (140 degrees) at 7 MPH (6 knots; 3.1 m/s)
Visibility: 6 or more miles (10+ km)
Ceiling: 3000 feet AGL
Clouds: broken clouds at 3000 feet AGL
Weather: no significant weather observed at this time

METAR text: ESGG 221920Z 13005KT 9999 BKN029 M02/M03 Q1006 R21/19//95
Conditions at: ESGG (GOTEBORG/LANDVET, SE) observed 1920 UTC 22 January 2019
Temperature: -2.0°C (28°F)
Dewpoint: -3.0°C (27°F) [RH = 93%]
Pressure (altimeter): 29.70 inches Hg (1006.0 mb)
Winds: from the SE (130 degrees) at 6 MPH (5 knots; 2.6 m/s)
Visibility: 6 or more miles (10+ km)
Ceiling: 2900 feet AGL
Clouds: broken clouds at 2900 feet AGL
Weather: no significant weather observed at this time

METAR text: ESGG 221850Z 13006KT 9999 BKN030 M02/M03 Q1006 R21/19//95
Conditions at: ESGG (GOTEBORG/LANDVET, SE) observed 1850 UTC 22 January 2019
Temperature: -2.0°C (28°F)
Dewpoint: -3.0°C (27°F) [RH = 93%]
Pressure (altimeter): 29.70 inches Hg (1006.0 mb)
Winds: from the SE (130 degrees) at 7 MPH (6 knots; 3.1 m/s)
Visibility: 6 or more miles (10+ km)
Ceiling: 3000 feet AGL
Clouds: broken clouds at 3000 feet AGL
Weather: no significant weather observed at this time

METAR text: ESGG 221820Z 13006KT 9999 BKN032 M02/M03 Q1006 R21/19//95
Conditions at: ESGG (GOTEBORG/LANDVET, SE) observed 1820 UTC 22 January 2019
Temperature: -2.0°C (28°F)
Dewpoint: -3.0°C (27°F) [RH = 93%]
Pressure (altimeter): 29.70 inches Hg (1006.0 mb)
Winds: from the SE (130 degrees) at 7 MPH (6 knots; 3.1 m/s)
Visibility: 6 or more miles (10+ km)
Ceiling: 3200 feet AGL
Clouds: broken clouds at 3200 feet AGL
Weather: no significant weather observed at this time

METAR text: ESGG 221750Z 13006KT 9999 BKN034 M02/M03 Q1006 R21/19//95
Conditions at: ESGG (GOTEBORG/LANDVET, SE) observed 1750 UTC 22 January 2019
Temperature: -2.0°C (28°F)
Dewpoint: -3.0°C (27°F) [RH = 93%]
Pressure (altimeter): 29.70 inches Hg (1006.0 mb)
Winds: from the SE (130 degrees) at 7 MPH (6 knots; 3.1 m/s)
Visibility: 6 or more miles (10+ km)
Ceiling: 3400 feet AGL
Clouds: broken clouds at 3400 feet AGL
Weather: no significant weather observed at this time

METAR text: ESGG 221720Z 14006KT 9999 FEW003 BKN034 M02/M03 Q1006 R21/19//95
Conditions at: ESGG (GOTEBORG/LANDVET, SE) observed 1720 UTC 22 January 2019
Temperature: -2.0°C (28°F)
Dewpoint: -3.0°C (27°F) [RH = 93%]
Pressure (altimeter): 29.70 inches Hg (1006.0 mb)
Winds: from the SE (140 degrees) at 7 MPH (6 knots; 3.1 m/s)
Visibility: 6 or more miles (10+ km)
Ceiling: 3400 feet AGL
Clouds: few clouds at 300 feet AGL
broken clouds at 3400 feet AGL
Weather: no significant weather observed at this time

METAR text: ESGG 221650Z 14007KT 9999 BKN034 M02/M03 Q1007 R21/19//95
Conditions at: ESGG (GOTEBORG/LANDVET, SE) observed 1650 UTC 22 January 2019
Temperature: -2.0°C (28°F)
Dewpoint: -3.0°C (27°F) [RH = 93%]
Pressure (altimeter): 29.73 inches Hg (1007.0 mb)
Winds: from the SE (140 degrees) at 8 MPH (7 knots; 3.6 m/s)
Visibility: 6 or more miles (10+ km)
Ceiling: 3400 feet AGL
Clouds: broken clouds at 3400 feet AGL
Weather: no significant weather observed at this time

METAR text: ESGG 221620Z 15007KT 9999 BKN038 M02/M03 Q1007 R21/19//95
Conditions at: ESGG (GOTEBORG/LANDVET, SE) observed 1620 UTC 22 January 2019
Temperature: -2.0°C (28°F)
Dewpoint: -3.0°C (27°F) [RH = 93%]
Pressure (altimeter): 29.73 inches Hg (1007.0 mb)
Winds: from the SSE (150 degrees) at 8 MPH (7 knots; 3.6 m/s)
Visibility: 6 or more miles (10+ km)
Ceiling: 3800 feet AGL
Clouds: broken clouds at 3800 feet AGL
Weather: no significant weather observed at this time

METAR text: ESGG 221550Z 14006KT 9999 BKN038 M02/M03 Q1007 R21/19//95
Conditions at: ESGG (GOTEBORG/LANDVET, SE) observed 1550 UTC 22 January 2019
Temperature: -2.0°C (28°F)
Dewpoint: -3.0°C (27°F) [RH = 93%]
Pressure (altimeter): 29.73 inches Hg (1007.0 mb)
Winds: from the SE (140 degrees) at 7 MPH (6 knots; 3.1 m/s)
Visibility: 6 or more miles (10+ km)
Ceiling: 3800 feet AGL
Clouds: broken clouds at 3800 feet AGL
Weather: no significant weather observed at this time

METAR text: ESGG 221520Z 13006KT CAVOK M02/M03 Q1007 R21/19//95
Conditions at: ESGG (GOTEBORG/LANDVET, SE) observed 1520 UTC 22 January 2019
Temperature: -2.0°C (28°F)
Dewpoint: -3.0°C (27°F) [RH = 93%]
Pressure (altimeter): 29.73 inches Hg (1007.0 mb)
Winds: from the SE (130 degrees) at 7 MPH (6 knots; 3.1 m/s)
Visibility: 6 or more miles (10+ km)
Ceiling: ceiling and visibility are OK
Clouds: unknown
Weather: no significant weather observed at this time

METAR text: ESGG 221450Z 14006KT CAVOK M02/M03 Q1007 R21/29//95
Conditions at: ESGG (GOTEBORG/LANDVET, SE) observed 1450 UTC 22 January 2019
Temperature: -2.0°C (28°F)
Dewpoint: -3.0°C (27°F) [RH = 93%]
Pressure (altimeter): 29.73 inches Hg (1007.0 mb)
Winds: from the SE (140 degrees) at 7 MPH (6 knots; 3.1 m/s)
Visibility: 6 or more miles (10+ km)
Ceiling: ceiling and visibility are OK
Clouds: unknown
Weather: no significant weather observed at this time

METAR text: ESGG 221420Z 15006KT 9999 FEW041 M01/M03 Q1007 R21/29//95
Conditions at: ESGG (GOTEBORG/LANDVET, SE) observed 1420 UTC 22 January 2019
Temperature: -1.0°C (30°F)
Dewpoint: -3.0°C (27°F) [RH = 86%]
Pressure (altimeter): 29.73 inches Hg (1007.0 mb)
Winds: from the SSE (150 degrees) at 7 MPH (6 knots; 3.1 m/s)
Visibility: 6 or more miles (10+ km)
Ceiling: at least 12,000 feet AGL
Clouds: few clouds at 4100 feet AGL
Weather: no significant weather observed at this time

METAR text: ESGG 221350Z 16006KT 9999 FEW008 BKN041 M01/M02 Q1007 R21/29//95
Conditions at: ESGG (GOTEBORG/LANDVET, SE) observed 1350 UTC 22 January 2019
Temperature: -1.0°C (30°F)
Dewpoint: -2.0°C (28°F) [RH = 93%]
Pressure (altimeter): 29.73 inches Hg (1007.0 mb)
Winds: from the SSE (160 degrees) at 7 MPH (6 knots; 3.1 m/s)
Visibility: 6 or more miles (10+ km)
Ceiling: 4100 feet AGL
Clouds: few clouds at 800 feet AGL
broken clouds at 4100 feet AGL
Weather: no significant weather observed at this time

METAR text: ESGG 221320Z 15008KT 9999 FEW006 OVC041 M00/M02 Q1007 R21/29//95
Conditions at: ESGG (GOTEBORG/LANDVET, SE) observed 1320 UTC 22 January 2019
Temperature: 0.0°C (32°F)
Dewpoint: -2.0°C (28°F) [RH = 86%]
Pressure (altimeter): 29.73 inches Hg (1007.0 mb)
Winds: from the SSE (150 degrees) at 9 MPH (8 knots; 4.1 m/s)
Visibility: 6 or more miles (10+ km)
Ceiling: 4100 feet AGL
Clouds: few clouds at 600 feet AGL
overcast cloud deck at 4100 feet AGL
Weather: no significant weather observed at this time

METAR text: ESGG 221250Z 14008KT 9999 FEW010 BKN043 M01/M02 Q1007 R21/29//95
Conditions at: ESGG (GOTEBORG/LANDVET, SE) observed 1250 UTC 22 January 2019
Temperature: -1.0°C (30°F)
Dewpoint: -2.0°C (28°F) [RH = 93%]
Pressure (altimeter): 29.73 inches Hg (1007.0 mb)
Winds: from the SE (140 degrees) at 9 MPH (8 knots; 4.1 m/s)
Visibility: 6 or more miles (10+ km)
Ceiling: 4300 feet AGL
Clouds: few clouds at 1000 feet AGL
broken clouds at 4300 feet AGL
Weather: no significant weather observed at this time

METAR text: ESGG 221220Z 13009KT 9999 OVC039 M01/M02 Q1008 R21/29//95
Conditions at: ESGG (GOTEBORG/LANDVET, SE) observed 1220 UTC 22 January 2019
Temperature: -1.0°C (30°F)
Dewpoint: -2.0°C (28°F) [RH = 93%]
Pressure (altimeter): 29.76 inches Hg (1008.0 mb)
Winds: from the SE (130 degrees) at 10 MPH (9 knots; 4.6 m/s)
Visibility: 6 or more miles (10+ km)
Ceiling: 3900 feet AGL
Clouds: overcast cloud deck at 3900 feet AGL
Weather: no significant weather observed at this time

METAR text: ESGG 221150Z 14008KT 9999 FEW009 BKN038 M01/M02 Q1008 R21/29//95
Conditions at: ESGG (GOTEBORG/LANDVET, SE) observed 1150 UTC 22 January 2019
Temperature: -1.0°C (30°F)
Dewpoint: -2.0°C (28°F) [RH = 93%]
Pressure (altimeter): 29.76 inches Hg (1008.0 mb)
Winds: from the SE (140 degrees) at 9 MPH (8 knots; 4.1 m/s)
Visibility: 6 or more miles (10+ km)
Ceiling: 3800 feet AGL
Clouds: few clouds at 900 feet AGL
broken clouds at 3800 feet AGL
Weather: no significant weather observed at this time

METAR text: ESGG 221120Z 14006KT 9999 BKN036 M01/M02 Q1008 R21/29//95
Conditions at: ESGG (GOTEBORG/LANDVET, SE) observed 1120 UTC 22 January 2019
Temperature: -1.0°C (30°F)
Dewpoint: -2.0°C (28°F) [RH = 93%]
Pressure (altimeter): 29.76 inches Hg (1008.0 mb)
Winds: from the SE (140 degrees) at 7 MPH (6 knots; 3.1 m/s)
Visibility: 6 or more miles (10+ km)
Ceiling: 3600 feet AGL
Clouds: broken clouds at 3600 feet AGL
Weather: no significant weather observed at this time

METAR text: ESGG 221050Z 14006KT 9999 SCT006 BKN032 M01/M02 Q1009 R21/29//95
Conditions at: ESGG (GOTEBORG/LANDVET, SE) observed 1050 UTC 22 January 2019
Temperature: -1.0°C (30°F)
Dewpoint: -2.0°C (28°F) [RH = 93%]
Pressure (altimeter): 29.79 inches Hg (1009.0 mb)
Winds: from the SE (140 degrees) at 7 MPH (6 knots; 3.1 m/s)
Visibility: 6 or more miles (10+ km)
Ceiling: 3200 feet AGL
Clouds: scattered clouds at 600 feet AGL
broken clouds at 3200 feet AGL
Weather: no significant weather observed at this time

METAR text: ESGG 221020Z 14006KT 9999 BKN005 BKN018 OVC032 M01/M02 Q1009 R21/29//95
Conditions at: ESGG (GOTEBORG/LANDVET, SE) observed 1020 UTC 22 January 2019
Temperature: -1.0°C (30°F)
Dewpoint: -2.0°C (28°F) [RH = 93%]
Pressure (altimeter): 29.79 inches Hg (1009.0 mb)
Winds: from the SE (140 degrees) at 7 MPH (6 knots; 3.1 m/s)
Visibility: 6 or more miles (10+ km)
Ceiling: 500 feet AGL
Clouds: broken clouds at 500 feet AGL
broken clouds at 1800 feet AGL
overcast cloud deck at 3200 feet AGL
Weather: no significant weather observed at this time

METAR text: ESGG 220950Z 15005KT 9999 SCT007 BKN017 OVC034 M01/M02 Q1009 R21/29//95
Conditions at: ESGG (GOTEBORG/LANDVET, SE) observed 0950 UTC 22 January 2019
Temperature: -1.0°C (30°F)
Dewpoint: -2.0°C (28°F) [RH = 93%]
Pressure (altimeter): 29.79 inches Hg (1009.0 mb)
Winds: from the SSE (150 degrees) at 6 MPH (5 knots; 2.6 m/s)
Visibility: 6 or more miles (10+ km)
Ceiling: 1700 feet AGL
Clouds: scattered clouds at 700 feet AGL
broken clouds at 1700 feet AGL
overcast cloud deck at 3400 feet AGL
Weather: no significant weather observed at this time

METAR text: ESGG 220920Z 14006KT 9999 FEW005 BKN009 M01/M02 Q1009 R21/29//95
Conditions at: ESGG (GOTEBORG/LANDVET, SE) observed 0920 UTC 22 January 2019
Temperature: -1.0°C (30°F)
Dewpoint: -2.0°C (28°F) [RH = 93%]
Pressure (altimeter): 29.79 inches Hg (1009.0 mb)
Winds: from the SE (140 degrees) at 7 MPH (6 knots; 3.1 m/s)
Visibility: 6 or more miles (10+ km)
Ceiling: 900 feet AGL
Clouds: few clouds at 500 feet AGL
broken clouds at 900 feet AGL
Weather: no significant weather observed at this time

METAR text: ESGG 220850Z 14006KT 9999 FEW007 BKN009 BKN029 M01/M02 Q1009 R21/29//95
Conditions at: ESGG (GOTEBORG/LANDVET, SE) observed 0850 UTC 22 January 2019
Temperature: -1.0°C (30°F)
Dewpoint: -2.0°C (28°F) [RH = 93%]
Pressure (altimeter): 29.79 inches Hg (1009.0 mb)
Winds: from the SE (140 degrees) at 7 MPH (6 knots; 3.1 m/s)
Visibility: 6 or more miles (10+ km)
Ceiling: 900 feet AGL
Clouds: few clouds at 700 feet AGL
broken clouds at 900 feet AGL
broken clouds at 2900 feet AGL
Weather: no significant weather observed at this time

METAR text: ESGG 220820Z 14006KT 9999 FEW005 BKN010 M01/M02 Q1009 R21/29//95
Conditions at: ESGG (GOTEBORG/LANDVET, SE) observed 0820 UTC 22 January 2019
Temperature: -1.0°C (30°F)
Dewpoint: -2.0°C (28°F) [RH = 93%]
Pressure (altimeter): 29.79 inches Hg (1009.0 mb)
Winds: from the SE (140 degrees) at 7 MPH (6 knots; 3.1 m/s)
Visibility: 6 or more miles (10+ km)
Ceiling: 1000 feet AGL
Clouds: few clouds at 500 feet AGL
broken clouds at 1000 feet AGL
Weather: no significant weather observed at this time

METAR text: ESGG 220750Z 14006KT 9999 BR BKN005 OVC015 M01/M02 Q1009 R21/29//95
Conditions at: ESGG (GOTEBORG/LANDVET, SE) observed 0750 UTC 22 January 2019
Temperature: -1.0°C (30°F)
Dewpoint: -2.0°C (28°F) [RH = 93%]
Pressure (altimeter): 29.79 inches Hg (1009.0 mb)
Winds: from the SE (140 degrees) at 7 MPH (6 knots; 3.1 m/s)
Visibility: 6 or more miles (10+ km)
Ceiling: 500 feet AGL
Clouds: broken clouds at 500 feet AGL
overcast cloud deck at 1500 feet AGL
Weather: BR  (mist)

Forecast for: ESGG (GOTEBORG/LANDVET, SE)
Text: TAF ESGG 231730Z 2318/2418 13006KT CAVOK
Forecast period: 1800 to 2100 UTC 23 January 2019
Forecast type: FROM: standard forecast or significant change
Winds: from the SE (130 degrees) at 7 MPH (6 knots; 3.1 m/s)
Visibility: 6 or more miles 10+ km)
Ceiling: unknown
Clouds: missing
Weather: NSW  (no significant weather)
Text: BECMG 2321/2323 2000 BR BKN002
Forecast period: 2100 UTC 23 January 2019 to 0700 UTC 24 January 2019
Forecast type: BECOMING: Conditions expected to become as follows by 2300 UTC 23 January 2019
Winds: from the SE (130 degrees) at 7 MPH (6 knots; 3.1 m/s)
Visibility: 1.24 miles (2.00 km)
Ceiling: 200 feet AGL
Clouds: broken clouds at 200 feet AGL
Weather: BR  (mist)
Text: PROB40 2401/2407 FZFG
Forecast period: 0100 to 0700 UTC 24 January 2019
Forecast type: PROBABLE: 40 percent likelihood of the following during this time
Visibility: missing
Ceiling: unknown
Clouds: missing
Weather: FZFG  (freezing fog)
Text: BECMG 2407/2409 9999 NSW SCT006
Forecast period: 0700 to 1800 UTC 24 January 2019
Forecast type: BECOMING: Conditions expected to become as follows by 0900 UTC 24 January 2019
Winds: from the SE (130 degrees) at 7 MPH (6 knots; 3.1 m/s)
Visibility: 6 or more miles 10+ km)
Ceiling: at least 12,000 feet AGL
Clouds: scattered clouds at 600 feet AGL
Weather: NSW  (no significant weather)